createdAt,value
2018-03-27T00:01:20.030Z,0
2018-03-27T00:02:41.627Z,0
2018-03-27T00:04:03.472Z,0
2018-03-27T00:05:24.556Z,0
2018-03-27T00:06:46.478Z,0
2018-03-27T00:08:08.162Z,0
2018-03-27T00:09:29.913Z,0
2018-03-27T00:10:51.520Z,0
2018-03-27T00:12:13.365Z,0
2018-03-27T00:13:34.185Z,0
2018-03-27T00:14:55.861Z,0
2018-03-27T00:16:17.248Z,0
2018-03-27T00:17:38.601Z,0
2018-03-27T00:19:00.463Z,0
2018-03-27T00:20:22.330Z,0
2018-03-27T00:21:44.559Z,0
2018-03-27T00:23:05.937Z,0
2018-03-27T00:24:27.795Z,0
2018-03-27T00:25:49.661Z,0
2018-03-27T00:27:11.003Z,0
2018-03-27T00:28:32.600Z,0
2018-03-27T00:29:54.729Z,0
2018-03-27T00:31:16.848Z,0
2018-03-27T00:32:38.729Z,0
2018-03-27T00:34:00.360Z,0
2018-03-27T00:35:21.965Z,0
2018-03-27T00:36:43.442Z,0
2018-03-27T00:38:04.771Z,0
2018-03-27T00:39:26.711Z,0
2018-03-27T00:40:48.300Z,0
2018-03-27T00:42:09.694Z,0
2018-03-27T00:43:31.072Z,0
2018-03-27T00:44:52.519Z,0
2018-03-27T00:46:14.113Z,0
2018-03-27T00:47:35.994Z,0
2018-03-27T00:48:57.096Z,0
2018-03-27T00:50:18.176Z,0
2018-03-27T00:51:39.559Z,0
2018-03-27T00:53:01.491Z,0
2018-03-27T00:54:23.792Z,0
2018-03-27T00:55:45.711Z,0
2018-03-27T00:57:07.081Z,0
2018-03-27T00:58:28.991Z,0
2018-03-27T00:59:51.137Z,0
2018-03-27T01:01:12.750Z,0
2018-03-27T01:02:34.859Z,0
2018-03-27T01:03:56.471Z,0
2018-03-27T01:05:18.429Z,0
2018-03-27T01:06:40.293Z,0
2018-03-27T01:08:01.900Z,0
2018-03-27T01:09:23.875Z,0
2018-03-27T01:10:45.215Z,0
2018-03-27T01:12:06.809Z,0
2018-03-27T01:13:28.408Z,0
2018-03-27T01:14:50.047Z,0
2018-03-27T01:16:11.658Z,0
2018-03-27T01:17:33.789Z,0
2018-03-27T01:18:55.379Z,0
2018-03-27T01:20:17.530Z,0
2018-03-27T01:21:38.603Z,0
2018-03-27T01:23:00.739Z,0
2018-03-27T01:24:22.452Z,0
2018-03-27T01:25:44.260Z,0
2018-03-27T01:27:05.600Z,0
2018-03-27T01:28:26.680Z,0
2018-03-27T01:29:48.268Z,0
2018-03-27T01:31:09.900Z,0
2018-03-27T01:32:31.776Z,0
2018-03-27T01:33:53.368Z,0
2018-03-27T01:35:15.021Z,0
2018-03-27T01:36:36.985Z,0
2018-03-27T01:37:58.591Z,0
2018-03-27T01:39:19.956Z,0
2018-03-27T01:40:41.296Z,0
2018-03-27T01:42:03.203Z,0
2018-03-27T01:43:25.069Z,0
2018-03-27T01:44:46.676Z,0
2018-03-27T01:46:08.540Z,0
2018-03-27T01:47:30.711Z,0
2018-03-27T01:48:52.070Z,0
2018-03-27T01:50:13.412Z,0
2018-03-27T01:51:35.535Z,0
2018-03-27T01:52:57.670Z,0
2018-03-27T01:54:19.813Z,0
2018-03-27T01:55:41.798Z,0
2018-03-27T01:57:03.770Z,0
2018-03-27T01:58:25.730Z,0
2018-03-27T01:59:47.604Z,0
2018-03-27T02:01:09.067Z,0
2018-03-27T02:02:30.943Z,0
2018-03-27T02:03:52.897Z,0
2018-03-27T02:05:14.593Z,0
2018-03-27T02:06:35.959Z,0
2018-03-27T02:07:58.146Z,0
2018-03-27T02:09:20.096Z,0
2018-03-27T02:10:41.971Z,0
2018-03-27T02:12:03.825Z,0
2018-03-27T02:13:25.999Z,0
2018-03-27T02:14:47.065Z,0
2018-03-27T02:16:08.805Z,0
2018-03-27T02:17:30.685Z,0
2018-03-27T02:18:52.295Z,0
2018-03-27T02:20:14.564Z,0
2018-03-27T02:21:36.441Z,0
2018-03-27T02:22:57.786Z,0
2018-03-27T02:24:19.620Z,0
2018-03-27T02:25:41.495Z,0
2018-03-27T02:27:03.149Z,0
2018-03-27T02:28:25.013Z,0
2018-03-27T02:29:47.052Z,0
2018-03-27T02:31:09.210Z,0
2018-03-27T02:32:31.339Z,0
2018-03-27T02:33:52.784Z,0
2018-03-27T02:35:14.406Z,0
2018-03-27T02:36:36.051Z,0
2018-03-27T02:37:57.652Z,0
2018-03-27T02:39:19.029Z,0
2018-03-27T02:40:40.809Z,0
2018-03-27T02:42:02.738Z,0
2018-03-27T02:43:24.639Z,0
2018-03-27T02:44:46.264Z,0
2018-03-27T02:46:07.626Z,0
2018-03-27T02:47:29.229Z,0
2018-03-27T02:48:51.114Z,0
2018-03-27T02:50:12.991Z,0
2018-03-27T02:51:34.623Z,0
2018-03-27T02:52:55.897Z,0
2018-03-27T02:54:17.518Z,0
2018-03-27T02:55:39.128Z,0
2018-03-27T02:57:00.761Z,0
2018-03-27T02:58:22.909Z,0
2018-03-27T02:59:44.343Z,0
2018-03-27T03:01:06.517Z,0
2018-03-27T03:02:28.131Z,0
2018-03-27T03:03:49.741Z,0
2018-03-27T03:05:11.643Z,0
2018-03-27T03:06:33.503Z,0
2018-03-27T03:07:54.651Z,0
2018-03-27T03:09:16.582Z,0
2018-03-27T03:10:38.187Z,0
2018-03-27T03:11:59.862Z,0
2018-03-27T03:13:21.273Z,0
2018-03-27T03:14:42.774Z,0
2018-03-27T03:16:04.394Z,0
2018-03-27T03:17:26.098Z,0
2018-03-27T03:18:47.988Z,0
2018-03-27T03:20:09.356Z,0
2018-03-27T03:21:30.465Z,0
2018-03-27T03:22:52.078Z,0
2018-03-27T03:24:13.687Z,0
2018-03-27T03:25:35.565Z,0
2018-03-27T03:26:57.190Z,0
2018-03-27T03:28:19.163Z,0
2018-03-27T03:29:40.991Z,0
2018-03-27T03:31:03.115Z,0
2018-03-27T03:32:25.017Z,0
2018-03-27T03:33:46.635Z,0
2018-03-27T03:35:08.495Z,0
2018-03-27T03:36:30.254Z,0
2018-03-27T03:37:52.485Z,0
2018-03-27T03:39:14.100Z,0
2018-03-27T03:40:35.710Z,0
2018-03-27T03:41:57.804Z,0
2018-03-27T03:43:19.595Z,0
2018-03-27T03:44:40.988Z,0
2018-03-27T03:46:02.652Z,0
2018-03-27T03:47:24.782Z,0
2018-03-27T03:48:46.384Z,0
2018-03-27T03:50:08.261Z,0
2018-03-27T03:51:30.153Z,0
2018-03-27T03:52:51.509Z,0
2018-03-27T03:54:12.883Z,0
2018-03-27T03:55:34.480Z,0
2018-03-27T03:56:56.706Z,0
2018-03-27T03:58:18.889Z,0
2018-03-27T03:59:40.551Z,0
2018-03-27T04:01:02.170Z,0
2018-03-27T04:02:23.521Z,0
2018-03-27T04:03:45.162Z,0
2018-03-27T04:05:06.526Z,0
2018-03-27T04:06:27.861Z,0
2018-03-27T04:07:48.953Z,0
2018-03-27T04:09:11.125Z,0
2018-03-27T04:10:32.734Z,0
2018-03-27T04:11:54.351Z,0
2018-03-27T04:13:15.943Z,0
2018-03-27T04:14:37.796Z,0
2018-03-27T04:15:59.408Z,0
2018-03-27T04:17:20.784Z,0
2018-03-27T04:18:42.185Z,0
2018-03-27T04:20:03.516Z,0
2018-03-27T04:21:24.689Z,0
2018-03-27T04:22:46.909Z,0
2018-03-27T04:24:08.245Z,0
2018-03-27T04:25:29.588Z,0
2018-03-27T04:26:51.700Z,0
2018-03-27T04:28:13.832Z,0
2018-03-27T04:29:35.161Z,0
2018-03-27T04:30:56.477Z,0
2018-03-27T04:32:18.612Z,0
2018-03-27T04:33:40.782Z,0
2018-03-27T04:35:02.909Z,0
2018-03-27T04:36:24.779Z,0
2018-03-27T04:37:46.707Z,0
2018-03-27T04:39:08.586Z,0
2018-03-27T04:40:30.509Z,0
2018-03-27T04:41:52.266Z,0
2018-03-27T04:43:14.110Z,0
2018-03-27T04:44:36.029Z,0
2018-03-27T04:45:57.929Z,0
2018-03-27T04:47:19.524Z,0
2018-03-27T04:48:41.382Z,0
2018-03-27T04:50:03.108Z,0
2018-03-27T04:51:24.721Z,0
2018-03-27T04:52:46.740Z,0
2018-03-27T04:54:08.161Z,0
2018-03-27T04:55:29.771Z,0
2018-03-27T04:56:51.650Z,0
2018-03-27T04:58:13.004Z,0
2018-03-27T04:59:34.420Z,0
2018-03-27T05:00:56.017Z,0
2018-03-27T05:02:17.230Z,0
2018-03-27T05:03:38.584Z,0
2018-03-27T05:04:59.928Z,0
2018-03-27T05:06:21.547Z,0
2018-03-27T05:07:43.221Z,5
2018-03-27T05:09:04.825Z,5
2018-03-27T05:10:26.697Z,5
2018-03-27T05:11:48.323Z,5
2018-03-27T05:13:09.664Z,5
2018-03-27T05:14:31.805Z,5
2018-03-27T05:15:53.431Z,10
2018-03-27T05:17:15.038Z,10
2018-03-27T05:18:36.909Z,10
2018-03-27T05:19:58.784Z,10
2018-03-27T05:21:20.963Z,15
2018-03-27T05:22:42.555Z,15
2018-03-27T05:24:04.233Z,15
2018-03-27T05:25:26.380Z,15
2018-03-27T05:26:47.758Z,15
2018-03-27T05:28:09.908Z,20
2018-03-27T05:29:31.892Z,20
2018-03-27T05:30:53.910Z,20
2018-03-27T05:32:15.822Z,20
2018-03-27T05:33:37.772Z,20
2018-03-27T05:34:59.797Z,25
2018-03-27T05:36:21.443Z,25
2018-03-27T05:37:43.373Z,30
2018-03-27T05:39:05.004Z,30
2018-03-27T05:40:26.349Z,35
2018-03-27T05:41:47.971Z,35
2018-03-27T05:43:09.606Z,40
2018-03-27T05:44:30.959Z,40
2018-03-27T05:45:53.000Z,40
2018-03-27T05:47:14.420Z,40
2018-03-27T05:48:35.510Z,40
2018-03-27T05:49:57.125Z,40
2018-03-27T05:51:18.997Z,45
2018-03-27T05:52:40.502Z,45
2018-03-27T05:54:01.580Z,50
2018-03-27T05:55:23.166Z,50
2018-03-27T05:56:44.857Z,55
2018-03-27T05:58:06.572Z,55
2018-03-27T05:59:28.440Z,60
2018-03-27T06:00:50.590Z,55
2018-03-27T06:02:12.523Z,60
2018-03-27T06:03:33.991Z,65
2018-03-27T06:04:55.348Z,70
2018-03-27T06:06:16.185Z,70
2018-03-27T06:07:37.932Z,70
2018-03-27T06:08:59.816Z,75
2018-03-27T06:10:21.155Z,80
2018-03-27T06:11:42.508Z,80
2018-03-27T06:13:04.662Z,80
2018-03-27T06:14:26.612Z,85
2018-03-27T06:15:48.743Z,85
2018-03-27T06:17:09.822Z,85
2018-03-27T06:18:31.703Z,85
2018-03-27T06:19:53.643Z,85
2018-03-27T06:21:15.017Z,90
2018-03-27T06:22:36.371Z,90
2018-03-27T06:23:58.504Z,90
2018-03-27T06:25:20.374Z,95
2018-03-27T06:26:42.244Z,95
2018-03-27T06:28:04.020Z,100
2018-03-27T06:29:26.268Z,100
2018-03-27T06:30:48.124Z,105
2018-03-27T06:32:10.399Z,110
2018-03-27T06:33:31.748Z,115
2018-03-27T06:34:53.079Z,115
2018-03-27T06:36:14.723Z,110
2018-03-27T06:37:36.100Z,110
2018-03-27T06:38:57.174Z,115
2018-03-27T06:40:19.321Z,110
2018-03-27T06:41:40.714Z,110
2018-03-27T06:43:02.925Z,105
2018-03-27T06:44:24.797Z,100
2018-03-27T06:45:46.138Z,100
2018-03-27T06:47:08.039Z,100
2018-03-27T06:48:29.479Z,100
2018-03-27T06:49:51.160Z,100
2018-03-27T06:51:12.279Z,100
2018-03-27T06:52:33.886Z,100
2018-03-27T06:53:55.496Z,100
2018-03-27T06:55:16.824Z,105
2018-03-27T06:56:38.947Z,105
2018-03-27T06:58:00.923Z,110
2018-03-27T06:59:22.894Z,110
2018-03-27T07:00:44.916Z,110
2018-03-27T07:02:06.557Z,110
2018-03-27T07:03:28.471Z,110
2018-03-27T07:04:49.857Z,110
2018-03-27T07:06:11.796Z,115
2018-03-27T07:07:33.432Z,115
2018-03-27T07:08:55.309Z,120
2018-03-27T07:10:17.023Z,120
2018-03-27T07:11:39.284Z,120
2018-03-27T07:13:01.272Z,125
2018-03-27T07:14:22.925Z,125
2018-03-27T07:15:44.611Z,130
2018-03-27T07:17:06.303Z,140
2018-03-27T07:18:28.020Z,145
2018-03-27T07:19:50.013Z,145
2018-03-27T07:21:12.168Z,145
2018-03-27T07:22:34.504Z,150
2018-03-27T07:23:56.381Z,155
2018-03-27T07:25:18.281Z,160
2018-03-27T07:26:40.182Z,165
2018-03-27T07:28:01.884Z,170
2018-03-27T07:29:23.532Z,170
2018-03-27T07:30:45.150Z,170
2018-03-27T07:32:07.287Z,170
2018-03-27T07:33:28.905Z,170
2018-03-27T07:34:51.108Z,175
2018-03-27T07:36:12.821Z,185
2018-03-27T07:37:34.695Z,190
2018-03-27T07:38:56.729Z,190
2018-03-27T07:40:18.927Z,195
2018-03-27T07:41:41.015Z,195
2018-03-27T07:43:03.158Z,200
2018-03-27T07:44:25.080Z,210
2018-03-27T07:45:46.716Z,220
2018-03-27T07:47:08.936Z,230
2018-03-27T07:48:30.809Z,235
2018-03-27T07:49:52.647Z,245
2018-03-27T07:51:13.982Z,255
2018-03-27T07:52:36.059Z,260
2018-03-27T07:53:57.669Z,265
2018-03-27T07:55:19.844Z,265
2018-03-27T07:56:41.968Z,270
2018-03-27T07:58:04.111Z,275
2018-03-27T07:59:25.867Z,280
2018-03-27T08:00:47.583Z,280
2018-03-27T08:02:09.727Z,285
2018-03-27T08:04:03.767Z,285
2018-03-27T08:05:25.925Z,285
2018-03-27T08:06:47.554Z,285
2018-03-27T08:08:09.765Z,285
2018-03-27T08:09:31.535Z,275
2018-03-27T08:10:53.438Z,270
2018-03-27T08:12:15.353Z,270
2018-03-27T08:13:37.496Z,265
2018-03-27T08:14:58.981Z,255
2018-03-27T08:16:20.907Z,245
2018-03-27T08:17:42.821Z,220
2018-03-27T08:19:04.481Z,215
2018-03-27T08:20:26.403Z,205
2018-03-27T08:21:48.292Z,205
2018-03-27T08:23:10.183Z,200
2018-03-27T08:24:32.975Z,200
2018-03-27T08:25:55.217Z,200
2018-03-27T08:27:17.350Z,200
2018-03-27T08:28:38.941Z,220
2018-03-27T08:30:00.992Z,225
2018-03-27T08:31:22.868Z,250
2018-03-27T08:32:45.055Z,275
2018-03-27T08:34:07.330Z,300
2018-03-27T08:35:28.951Z,320
2018-03-27T08:36:50.891Z,325
2018-03-27T08:38:12.752Z,325
2018-03-27T08:39:34.881Z,345
2018-03-27T08:40:56.232Z,365
2018-03-27T08:42:18.374Z,370
2018-03-27T08:43:40.374Z,370
2018-03-27T08:45:02.260Z,365
2018-03-27T08:46:24.245Z,340
2018-03-27T08:47:46.131Z,330
2018-03-27T08:49:07.773Z,340
2018-03-27T08:50:29.938Z,330
2018-03-27T08:51:51.572Z,320
2018-03-27T08:53:13.836Z,315
2018-03-27T08:54:35.981Z,320
2018-03-27T08:55:58.141Z,335
2018-03-27T08:57:19.762Z,335
2018-03-27T08:58:42.113Z,330
2018-03-27T09:00:03.508Z,325
2018-03-27T09:01:25.220Z,315
2018-03-27T09:02:46.851Z,320
2018-03-27T09:04:08.256Z,300
2018-03-27T09:05:30.535Z,300
2018-03-27T09:06:52.418Z,300
2018-03-27T09:08:14.560Z,275
2018-03-27T09:09:36.762Z,275
2018-03-27T09:10:58.911Z,270
2018-03-27T09:12:21.069Z,270
2018-03-27T09:13:43.025Z,275
2018-03-27T09:15:04.391Z,285
2018-03-27T09:16:25.812Z,285
2018-03-27T09:17:47.158Z,295
2018-03-27T09:19:08.776Z,315
2018-03-27T09:20:30.153Z,325
2018-03-27T09:21:52.017Z,325
2018-03-27T09:23:13.708Z,315
2018-03-27T09:24:35.967Z,305
2018-03-27T09:25:57.878Z,295
2018-03-27T09:27:19.514Z,295
2018-03-27T09:28:41.633Z,295
2018-03-27T09:30:03.871Z,300
2018-03-27T09:31:26.121Z,305
2018-03-27T09:32:48.398Z,300
2018-03-27T09:34:10.302Z,300
2018-03-27T09:35:32.482Z,305
2018-03-27T09:36:53.890Z,310
2018-03-27T09:38:15.800Z,305
2018-03-27T09:39:37.958Z,305
2018-03-27T09:40:59.343Z,300
2018-03-27T09:42:21.213Z,280
2018-03-27T09:43:43.078Z,255
2018-03-27T09:45:05.058Z,245
2018-03-27T09:46:27.038Z,230
2018-03-27T09:47:49.023Z,220
2018-03-27T09:49:10.392Z,230
2018-03-27T09:50:32.171Z,235
2018-03-27T09:51:53.522Z,275
2018-03-27T09:53:15.195Z,315
2018-03-27T09:54:37.381Z,340
2018-03-27T09:55:59.256Z,350
2018-03-27T09:57:20.900Z,355
2018-03-27T09:58:42.261Z,350
2018-03-27T10:00:03.884Z,345
2018-03-27T10:01:26.173Z,350
2018-03-27T10:02:48.074Z,350
2018-03-27T10:04:10.232Z,350
2018-03-27T10:05:32.378Z,335
2018-03-27T10:06:54.028Z,345
2018-03-27T10:08:16.183Z,360
2018-03-27T10:09:38.017Z,355
2018-03-27T10:10:59.110Z,340
2018-03-27T10:12:21.331Z,330
2018-03-27T10:13:43.267Z,325
2018-03-27T10:15:04.958Z,325
2018-03-27T10:16:26.891Z,340
2018-03-27T10:17:48.514Z,360
2018-03-27T10:19:10.414Z,355
2018-03-27T10:20:31.965Z,350
2018-03-27T10:21:53.530Z,335
2018-03-27T10:23:15.696Z,335
2018-03-27T10:24:37.624Z,330
2018-03-27T10:25:58.961Z,340
2018-03-27T10:27:20.333Z,350
2018-03-27T10:28:41.704Z,360
2018-03-27T10:30:03.326Z,380
2018-03-27T10:31:25.227Z,375
2018-03-27T10:32:47.235Z,360
2018-03-27T10:34:08.611Z,365
2018-03-27T10:35:30.251Z,365
2018-03-27T10:36:51.891Z,365
2018-03-27T10:38:13.250Z,360
2018-03-27T10:39:34.403Z,360
2018-03-27T10:40:56.048Z,360
2018-03-27T10:42:17.721Z,360
2018-03-27T10:43:39.362Z,375
2018-03-27T10:45:01.264Z,370
2018-03-27T10:46:22.959Z,355
2018-03-27T10:47:45.113Z,335
2018-03-27T10:49:06.754Z,315
2018-03-27T10:50:28.120Z,290
2018-03-27T10:51:50.520Z,255
2018-03-27T10:53:12.187Z,245
2018-03-27T10:54:33.807Z,250
2018-03-27T10:55:55.502Z,280
2018-03-27T10:57:17.644Z,310
2018-03-27T10:58:38.752Z,330
2018-03-27T10:59:59.918Z,365
2018-03-27T11:01:21.542Z,395
2018-03-27T11:02:43.893Z,415
2018-03-27T11:04:05.939Z,395
2018-03-27T11:05:27.573Z,365
2018-03-27T11:06:49.460Z,335
2018-03-27T11:08:11.155Z,305
2018-03-27T11:09:32.784Z,300
2018-03-27T11:10:54.392Z,305
2018-03-27T11:12:16.283Z,310
2018-03-27T11:13:37.641Z,305
2018-03-27T11:14:59.007Z,290
2018-03-27T11:16:20.626Z,275
2018-03-27T11:17:42.303Z,260
2018-03-27T11:19:04.232Z,260
2018-03-27T11:20:26.389Z,250
2018-03-27T11:21:47.491Z,250
2018-03-27T11:23:09.656Z,245
2018-03-27T11:24:31.292Z,245
2018-03-27T11:25:53.450Z,255
2018-03-27T11:27:15.680Z,260
2018-03-27T11:28:37.323Z,260
2018-03-27T11:29:59.501Z,255
2018-03-27T11:31:21.144Z,250
2018-03-27T11:32:43.086Z,245
2018-03-27T11:34:04.431Z,235
2018-03-27T11:35:26.381Z,240
2018-03-27T11:36:48.528Z,230
2018-03-27T11:38:10.500Z,225
2018-03-27T11:39:32.384Z,225
2018-03-27T11:40:53.489Z,220
2018-03-27T11:42:15.122Z,220
2018-03-27T11:43:37.060Z,215
2018-03-27T11:44:58.717Z,205
2018-03-27T11:46:20.648Z,200
2018-03-27T11:47:42.878Z,200
2018-03-27T11:49:04.389Z,200
2018-03-27T11:50:26.295Z,205
2018-03-27T11:51:47.404Z,205
2018-03-27T11:53:09.090Z,205
2018-03-27T11:54:31.011Z,210
2018-03-27T11:55:52.670Z,215
2018-03-27T11:57:14.661Z,220
2018-03-27T11:58:36.332Z,210
2018-03-27T11:59:58.238Z,215
2018-03-27T12:01:19.867Z,220
2018-03-27T12:02:42.103Z,200
2018-03-27T12:04:03.176Z,210
2018-03-27T12:05:24.616Z,205
2018-03-27T12:06:46.263Z,210
2018-03-27T12:08:07.871Z,205
2018-03-27T12:09:29.258Z,210
2018-03-27T12:10:50.669Z,215
2018-03-27T12:12:12.202Z,210
2018-03-27T12:13:33.553Z,210
2018-03-27T12:14:55.477Z,220
2018-03-27T12:16:17.359Z,215
2018-03-27T12:17:39.013Z,225
2018-03-27T12:19:01.071Z,235
2018-03-27T12:20:22.700Z,240
2018-03-27T12:21:44.582Z,230
2018-03-27T12:23:06.512Z,240
2018-03-27T12:24:28.410Z,235
2018-03-27T12:25:50.291Z,235
2018-03-27T12:27:11.929Z,230
2018-03-27T12:28:33.353Z,225
2018-03-27T12:29:55.330Z,215
2018-03-27T12:31:17.312Z,215
2018-03-27T12:32:39.233Z,205
2018-03-27T12:34:01.413Z,215
2018-03-27T12:35:23.044Z,215
2018-03-27T12:36:44.683Z,225
2018-03-27T12:38:06.355Z,230
2018-03-27T12:39:28.020Z,245
2018-03-27T12:40:49.466Z,255
2018-03-27T12:42:11.471Z,260
2018-03-27T12:43:33.387Z,245
2018-03-27T12:44:55.092Z,240
2018-03-27T12:46:17.017Z,240
2018-03-27T12:47:38.653Z,240
2018-03-27T12:49:00.532Z,245
2018-03-27T12:50:22.550Z,250
2018-03-27T12:51:44.184Z,270
2018-03-27T12:53:05.570Z,280
2018-03-27T12:54:26.992Z,285
2018-03-27T12:55:48.980Z,285
2018-03-27T12:57:10.862Z,285
2018-03-27T12:58:32.724Z,280
2018-03-27T12:59:54.666Z,275
2018-03-27T13:01:16.924Z,280
2018-03-27T13:02:38.016Z,285
2018-03-27T13:04:00.202Z,290
2018-03-27T13:05:21.831Z,290
2018-03-27T13:06:43.463Z,300
2018-03-27T13:08:05.124Z,320
2018-03-27T13:09:26.769Z,330
2018-03-27T13:10:47.594Z,325
2018-03-27T13:12:09.021Z,325
2018-03-27T13:13:30.931Z,325
2018-03-27T13:15:24.942Z,325
2018-03-27T13:16:46.620Z,315
2018-03-27T13:18:08.318Z,320
2018-03-27T13:19:30.237Z,315
2018-03-27T13:20:52.130Z,330
2018-03-27T13:22:13.898Z,340
2018-03-27T13:23:35.828Z,335
2018-03-27T13:24:57.753Z,325
2018-03-27T13:26:19.634Z,335
2018-03-27T13:27:41.881Z,325
2018-03-27T13:29:03.513Z,325
2018-03-27T13:30:25.135Z,320
2018-03-27T13:31:46.820Z,295
2018-03-27T13:33:08.719Z,295
2018-03-27T13:34:30.669Z,280
2018-03-27T13:35:52.821Z,260
2018-03-27T13:37:15.247Z,260
2018-03-27T13:38:36.882Z,270
2018-03-27T13:39:58.490Z,275
2018-03-27T13:41:20.657Z,275
2018-03-27T13:42:42.538Z,285
2018-03-27T13:44:04.188Z,285
2018-03-27T13:45:26.364Z,290
2018-03-27T13:46:48.025Z,290
2018-03-27T13:48:09.746Z,285
2018-03-27T13:49:31.301Z,285
2018-03-27T13:50:53.194Z,265
2018-03-27T13:52:15.222Z,245
2018-03-27T13:53:37.196Z,235
2018-03-27T13:54:59.462Z,220
2018-03-27T13:56:21.692Z,220
2018-03-27T13:57:43.063Z,225
2018-03-27T13:59:04.671Z,235
2018-03-27T14:00:26.332Z,250
2018-03-27T14:01:48.301Z,245
2018-03-27T14:03:09.922Z,240
2018-03-27T14:04:31.828Z,245
2018-03-27T14:05:53.494Z,245
2018-03-27T14:07:15.631Z,240
2018-03-27T14:08:37.802Z,240
2018-03-27T14:09:59.802Z,230
2018-03-27T14:11:21.446Z,215
2018-03-27T14:12:43.663Z,210
2018-03-27T14:14:06.165Z,205
2018-03-27T14:15:27.801Z,200
2018-03-27T14:16:49.444Z,200
2018-03-27T14:18:11.066Z,215
2018-03-27T14:19:33.214Z,230
2018-03-27T14:20:55.093Z,245
2018-03-27T14:22:16.794Z,245
2018-03-27T14:23:39.063Z,255
2018-03-27T14:25:00.714Z,265
2018-03-27T14:26:22.510Z,270
2018-03-27T14:27:44.513Z,270
2018-03-27T14:29:06.433Z,265
2018-03-27T14:30:28.326Z,265
2018-03-27T14:31:50.258Z,270
2018-03-27T14:33:12.083Z,280
2018-03-27T14:34:33.971Z,275
2018-03-27T14:35:55.891Z,265
2018-03-27T14:37:17.528Z,250
2018-03-27T14:38:39.154Z,245
2018-03-27T14:40:01.068Z,240
2018-03-27T14:41:23.351Z,240
2018-03-27T14:42:45.255Z,240
2018-03-27T14:44:07.144Z,235
2018-03-27T14:45:29.062Z,240
2018-03-27T14:46:51.316Z,240
2018-03-27T14:48:13.250Z,235
2018-03-27T14:49:35.488Z,235
2018-03-27T14:50:57.134Z,235
2018-03-27T14:52:19.316Z,230
2018-03-27T14:53:41.215Z,225
2018-03-27T14:55:03.106Z,220
2018-03-27T14:56:25.059Z,215
2018-03-27T14:57:46.744Z,215
2018-03-27T14:59:08.633Z,215
2018-03-27T15:00:30.799Z,215
2018-03-27T15:01:53.018Z,220
2018-03-27T15:03:15.250Z,220
2018-03-27T15:04:37.467Z,220
2018-03-27T15:05:59.528Z,215
2018-03-27T15:07:21.713Z,220
2018-03-27T15:08:43.356Z,210
2018-03-27T15:10:05.587Z,205
2018-03-27T15:11:27.781Z,205
2018-03-27T15:12:49.806Z,205
2018-03-27T15:14:11.457Z,205
2018-03-27T15:15:32.827Z,205
2018-03-27T15:16:55.051Z,205
2018-03-27T15:18:16.963Z,205
2018-03-27T15:19:38.908Z,205
2018-03-27T15:21:01.071Z,205
2018-03-27T15:22:23.179Z,205
2018-03-27T15:23:44.573Z,205
2018-03-27T15:25:06.237Z,205
2018-03-27T15:26:28.402Z,200
2018-03-27T15:27:50.303Z,200
2018-03-27T15:29:12.596Z,195
2018-03-27T15:30:34.241Z,190
2018-03-27T15:31:55.882Z,190
2018-03-27T15:33:18.142Z,185
2018-03-27T15:34:39.822Z,185
2018-03-27T15:36:01.612Z,185
2018-03-27T15:37:22.980Z,185
2018-03-27T15:38:44.620Z,180
2018-03-27T15:40:06.558Z,180
2018-03-27T15:41:28.883Z,175
2018-03-27T15:42:50.766Z,175
2018-03-27T15:44:12.924Z,170
2018-03-27T15:45:35.144Z,170
2018-03-27T15:46:57.312Z,165
2018-03-27T15:48:19.215Z,160
2018-03-27T15:49:41.174Z,160
2018-03-27T15:51:03.083Z,155
2018-03-27T15:52:25.275Z,155
2018-03-27T15:53:47.488Z,150
2018-03-27T15:55:09.437Z,150
2018-03-27T15:56:31.363Z,150
2018-03-27T15:57:53.012Z,145
2018-03-27T15:59:15.298Z,145
2018-03-27T16:00:36.947Z,145
2018-03-27T16:01:58.943Z,140
2018-03-27T16:03:21.114Z,140
2018-03-27T16:04:43.019Z,140
2018-03-27T16:06:05.174Z,140
2018-03-27T16:07:27.154Z,140
2018-03-27T16:09:20.749Z,140
2018-03-27T16:10:42.705Z,140
2018-03-27T16:12:04.460Z,130
2018-03-27T16:13:26.741Z,130
2018-03-27T16:14:50.074Z,125
2018-03-27T16:16:12.346Z,125
2018-03-27T16:17:33.714Z,120
2018-03-27T16:18:55.933Z,120
2018-03-27T16:20:17.047Z,120
2018-03-27T16:21:38.928Z,115
2018-03-27T16:23:01.116Z,115
2018-03-27T16:24:23.055Z,115
2018-03-27T16:25:45.008Z,115
2018-03-27T16:27:06.643Z,115
2018-03-27T16:28:28.086Z,110
2018-03-27T16:29:49.788Z,110
2018-03-27T16:31:11.579Z,105
2018-03-27T16:32:33.593Z,105
2018-03-27T16:33:55.311Z,105
2018-03-27T16:35:17.504Z,100
2018-03-27T16:36:39.714Z,95
2018-03-27T16:38:01.080Z,95
2018-03-27T16:39:22.196Z,90
2018-03-27T16:40:43.625Z,90
2018-03-27T16:42:05.263Z,90
2018-03-27T16:43:26.886Z,85
2018-03-27T16:44:48.494Z,80
2018-03-27T16:46:10.695Z,75
2018-03-27T16:47:32.706Z,70
2018-03-27T16:48:54.691Z,65
2018-03-27T16:50:16.944Z,60
2018-03-27T16:51:38.590Z,60
2018-03-27T16:53:00.847Z,55
2018-03-27T16:54:22.841Z,50
2018-03-27T16:55:44.229Z,45
2018-03-27T16:57:06.031Z,45
2018-03-27T16:58:27.702Z,45
2018-03-27T16:59:49.613Z,45
2018-03-27T17:01:11.882Z,40
2018-03-27T17:02:33.539Z,40
2018-03-27T17:03:55.195Z,40
2018-03-27T17:05:17.113Z,35
2018-03-27T17:06:38.762Z,35
2018-03-27T17:08:00.952Z,35
2018-03-27T17:09:22.866Z,30
2018-03-27T17:10:44.235Z,30
2018-03-27T17:12:06.160Z,30
2018-03-27T17:13:28.371Z,30
2018-03-27T17:14:50.534Z,30
2018-03-27T17:16:12.777Z,30
2018-03-27T17:18:06.806Z,25
2018-03-27T17:19:28.959Z,25
2018-03-27T17:20:50.897Z,25
2018-03-27T17:22:12.581Z,25
2018-03-27T17:23:34.485Z,25
2018-03-27T17:24:56.383Z,20
2018-03-27T17:26:18.648Z,20
2018-03-27T17:27:40.839Z,20
2018-03-27T17:29:03.044Z,15
2018-03-27T17:30:25.037Z,15
2018-03-27T17:31:47.085Z,15
2018-03-27T17:33:09.316Z,15
2018-03-27T17:34:31.455Z,10
2018-03-27T17:35:53.146Z,10
2018-03-27T17:37:14.950Z,10
2018-03-27T17:38:36.603Z,10
2018-03-27T17:39:58.219Z,5
2018-03-27T17:41:19.645Z,5
2018-03-27T17:42:41.830Z,5
2018-03-27T17:44:03.239Z,5
2018-03-27T17:45:25.140Z,5
2018-03-27T17:46:47.062Z,5
2018-03-27T17:48:08.695Z,0
2018-03-27T17:49:30.592Z,0
2018-03-27T17:50:52.808Z,0
2018-03-27T17:52:14.454Z,0
2018-03-27T17:53:36.647Z,0
2018-03-27T17:54:58.796Z,0
2018-03-27T17:56:20.979Z,0
2018-03-27T17:57:42.746Z,0
2018-03-27T17:59:04.422Z,0
2018-03-27T18:00:26.104Z,0
2018-03-27T18:01:48.030Z,0
2018-03-27T18:03:09.931Z,0
2018-03-27T18:04:32.138Z,0
2018-03-27T18:05:53.768Z,0
2018-03-27T18:07:16.004Z,0
2018-03-27T18:08:38.179Z,0
2018-03-27T18:10:00.055Z,0
2018-03-27T18:11:22.113Z,0
2018-03-27T18:12:44.414Z,0
2018-03-27T18:14:06.588Z,0
2018-03-27T18:15:28.840Z,0
2018-03-27T18:16:50.235Z,0
2018-03-27T18:18:12.464Z,0
2018-03-27T18:19:33.845Z,0
2018-03-27T18:20:56.073Z,0
2018-03-27T18:22:18.300Z,0
2018-03-27T18:23:40.279Z,0
2018-03-27T18:25:02.556Z,0
2018-03-27T18:26:24.526Z,0
2018-03-27T18:27:46.493Z,0
2018-03-27T18:29:08.441Z,0
2018-03-27T18:30:30.346Z,0
2018-03-27T18:31:51.757Z,0
2018-03-27T18:33:13.406Z,0
2018-03-27T18:34:35.369Z,0
2018-03-27T18:35:57.571Z,0
2018-03-27T18:37:19.621Z,0
2018-03-27T18:38:41.295Z,0
2018-03-27T18:40:03.398Z,0
2018-03-27T18:41:25.417Z,0
2018-03-27T18:42:47.105Z,0
2018-03-27T18:44:09.297Z,0
2018-03-27T18:45:31.493Z,0
2018-03-27T18:46:53.716Z,0
2018-03-27T18:48:15.702Z,0
2018-03-27T18:49:37.735Z,0
2018-03-27T18:51:00.038Z,0
2018-03-27T18:52:21.706Z,0
2018-03-27T18:53:43.913Z,0
2018-03-27T18:55:05.565Z,0
2018-03-27T18:56:27.583Z,0
2018-03-27T18:57:49.762Z,0
2018-03-27T18:59:12.065Z,0
2018-03-27T19:00:33.981Z,0
2018-03-27T19:01:55.873Z,0
2018-03-27T19:03:17.531Z,0
2018-03-27T19:04:39.497Z,0
2018-03-27T19:06:01.552Z,0
2018-03-27T19:07:23.284Z,0
2018-03-27T19:08:44.767Z,0
2018-03-27T19:10:07.177Z,0
2018-03-27T19:11:29.150Z,0
2018-03-27T19:13:22.674Z,0
2018-03-27T19:14:44.359Z,0
2018-03-27T19:16:06.593Z,0
2018-03-27T19:17:27.973Z,0
2018-03-27T19:18:49.929Z,0
2018-03-27T19:20:11.626Z,0
2018-03-27T19:21:33.583Z,0
2018-03-27T19:22:55.772Z,0